sensor_id;sensor_type;location;lat;lon;timestamp;P1;durP1;ratioP1;P2;durP2;ratioP2
40659;SDS011;26753;45.544;9.232;2024-03-23T00:53:07;82.03;;;46.85;;
40659;SDS011;26753;45.544;9.232;2024-03-23T00:55:33;81.20;;;46.97;;
40659;SDS011;26753;45.544;9.232;2024-03-23T00:57:59;77.78;;;45.95;;
40659;SDS011;26753;45.544;9.232;2024-03-23T01:00:25;83.45;;;45.85;;
40659;SDS011;26753;45.544;9.232;2024-03-23T01:02:50;76.55;;;44.17;;
40659;SDS011;26753;45.544;9.232;2024-03-23T01:05:16;86.65;;;44.90;;
40659;SDS011;26753;45.544;9.232;2024-03-23T01:07:42;78.47;;;43.67;;
40659;SDS011;26753;45.544;9.232;2024-03-23T01:10:07;80.43;;;43.78;;
40659;SDS011;26753;45.544;9.232;2024-03-23T01:12:33;80.65;;;43.22;;
40659;SDS011;26753;45.544;9.232;2024-03-23T01:14:59;77.75;;;42.70;;
40659;SDS011;26753;45.544;9.232;2024-03-23T01:17:24;74.53;;;42.92;;
40659;SDS011;26753;45.544;9.232;2024-03-23T01:19:50;77.28;;;42.22;;
40659;SDS011;26753;45.544;9.232;2024-03-23T01:22:16;80.18;;;44.42;;
40659;SDS011;26753;45.544;9.232;2024-03-23T01:24:41;78.57;;;44.72;;
40659;SDS011;26753;45.544;9.232;2024-03-23T01:27:08;77.68;;;43.75;;
40659;SDS011;26753;45.544;9.232;2024-03-23T01:29:34;78.28;;;44.75;;
40659;SDS011;26753;45.544;9.232;2024-03-23T01:31:59;79.05;;;44.70;;
40659;SDS011;26753;45.544;9.232;2024-03-23T01:34:25;79.65;;;44.72;;
40659;SDS011;26753;45.544;9.232;2024-03-23T01:36:51;76.40;;;43.78;;
40659;SDS011;26753;45.544;9.232;2024-03-23T01:39:17;81.60;;;44.67;;
40659;SDS011;26753;45.544;9.232;2024-03-23T01:41:43;73.78;;;43.30;;
40659;SDS011;26753;45.544;9.232;2024-03-23T01:44:08;81.35;;;44.95;;
40659;SDS011;26753;45.544;9.232;2024-03-23T01:46:35;77.10;;;43.42;;
40659;SDS011;26753;45.544;9.232;2024-03-23T01:49:02;82.10;;;45.30;;
40659;SDS011;26753;45.544;9.232;2024-03-23T01:51:29;77.03;;;43.70;;
40659;SDS011;26753;45.544;9.232;2024-03-23T01:53:55;78.20;;;44.97;;
40659;SDS011;26753;45.544;9.232;2024-03-23T01:56:22;77.78;;;42.95;;
40659;SDS011;26753;45.544;9.232;2024-03-23T01:58:48;80.07;;;43.53;;
40659;SDS011;26753;45.544;9.232;2024-03-23T02:01:13;73.85;;;42.20;;
40659;SDS011;26753;45.544;9.232;2024-03-23T02:03:39;76.05;;;43.00;;
40659;SDS011;26753;45.544;9.232;2024-03-23T02:06:05;71.30;;;41.10;;
40659;SDS011;26753;45.544;9.232;2024-03-23T02:08:32;75.00;;;42.20;;
40659;SDS011;26753;45.544;9.232;2024-03-23T02:10:59;73.80;;;41.10;;
40659;SDS011;26753;45.544;9.232;2024-03-23T02:13:25;69.15;;;40.78;;
40659;SDS011;26753;45.544;9.232;2024-03-23T02:15:50;73.15;;;42.08;;
40659;SDS011;26753;45.544;9.232;2024-03-23T02:18:16;77.57;;;42.63;;
40659;SDS011;26753;45.544;9.232;2024-03-23T02:20:42;72.95;;;42.30;;
40659;SDS011;26753;45.544;9.232;2024-03-23T02:23:14;78.07;;;42.17;;
40659;SDS011;26753;45.544;9.232;2024-03-23T02:25:40;71.50;;;41.63;;
40659;SDS011;26753;45.544;9.232;2024-03-23T02:28:06;71.97;;;42.05;;
40659;SDS011;26753;45.544;9.232;2024-03-23T02:30:31;75.38;;;42.00;;
40659;SDS011;26753;45.544;9.232;2024-03-23T02:32:57;74.15;;;42.47;;
40659;SDS011;26753;45.544;9.232;2024-03-23T02:35:23;75.00;;;43.13;;
40659;SDS011;26753;45.544;9.232;2024-03-23T02:37:48;77.20;;;42.70;;
40659;SDS011;26753;45.544;9.232;2024-03-23T02:40:14;85.45;;;44.58;;
40659;SDS011;26753;45.544;9.232;2024-03-23T02:42:41;80.50;;;43.65;;
40659;SDS011;26753;45.544;9.232;2024-03-23T02:45:07;81.72;;;44.17;;
40659;SDS011;26753;45.544;9.232;2024-03-23T02:47:32;75.25;;;42.28;;
40659;SDS011;26753;45.544;9.232;2024-03-23T02:49:58;80.25;;;42.70;;
40659;SDS011;26753;45.544;9.232;2024-03-23T02:52:24;73.75;;;42.08;;
40659;SDS011;26753;45.544;9.232;2024-03-23T02:54:49;77.28;;;43.05;;
40659;SDS011;26753;45.544;9.232;2024-03-23T02:57:15;76.38;;;43.53;;
40659;SDS011;26753;45.544;9.232;2024-03-23T02:59:41;88.43;;;46.55;;
40659;SDS011;26753;45.544;9.232;2024-03-23T03:02:07;97.07;;;50.85;;
40659;SDS011;26753;45.544;9.232;2024-03-23T03:04:32;92.57;;;49.78;;
40659;SDS011;26753;45.544;9.232;2024-03-23T03:06:58;98.13;;;51.30;;
40659;SDS011;26753;45.544;9.232;2024-03-23T03:09:24;83.28;;;45.53;;
40659;SDS011;26753;45.544;9.232;2024-03-23T03:11:50;99.30;;;51.17;;
40659;SDS011;26753;45.544;9.232;2024-03-23T03:14:15;96.40;;;49.83;;
40659;SDS011;26753;45.544;9.232;2024-03-23T03:16:41;92.20;;;47.40;;
40659;SDS011;26753;45.544;9.232;2024-03-23T03:19:07;88.22;;;46.10;;
40659;SDS011;26753;45.544;9.232;2024-03-23T03:21:32;85.78;;;45.72;;
40659;SDS011;26753;45.544;9.232;2024-03-23T03:23:58;78.63;;;43.40;;
40659;SDS011;26753;45.544;9.232;2024-03-23T03:26:24;76.88;;;42.03;;
40659;SDS011;26753;45.544;9.232;2024-03-23T03:28:50;79.85;;;44.63;;
40659;SDS011;26753;45.544;9.232;2024-03-23T03:31:16;79.85;;;43.00;;
40659;SDS011;26753;45.544;9.232;2024-03-23T03:33:42;76.55;;;41.95;;
40659;SDS011;26753;45.544;9.232;2024-03-23T03:36:08;76.05;;;43.08;;
40659;SDS011;26753;45.544;9.232;2024-03-23T03:38:33;85.85;;;46.90;;
40659;SDS011;26753;45.544;9.232;2024-03-23T03:41:00;75.95;;;41.80;;
40659;SDS011;26753;45.544;9.232;2024-03-23T03:43:26;76.65;;;40.72;;
40659;SDS011;26753;45.544;9.232;2024-03-23T03:45:52;77.65;;;41.45;;
40659;SDS011;26753;45.544;9.232;2024-03-23T03:48:19;78.43;;;42.90;;
40659;SDS011;26753;45.544;9.232;2024-03-23T03:50:45;76.88;;;41.95;;
40659;SDS011;26753;45.544;9.232;2024-03-23T03:53:10;75.13;;;40.85;;
40659;SDS011;26753;45.544;9.232;2024-03-23T03:55:37;77.65;;;42.13;;
40659;SDS011;26753;45.544;9.232;2024-03-23T03:58:03;83.95;;;44.00;;
40659;SDS011;26753;45.544;9.232;2024-03-23T04:00:32;77.00;;;42.17;;
40659;SDS011;26753;45.544;9.232;2024-03-23T04:02:57;80.03;;;44.45;;
40659;SDS011;26753;45.544;9.232;2024-03-23T04:05:23;81.13;;;43.03;;
40659;SDS011;26753;45.544;9.232;2024-03-23T04:07:49;74.30;;;41.78;;
40659;SDS011;26753;45.544;9.232;2024-03-23T04:10:15;79.22;;;42.17;;
40659;SDS011;26753;45.544;9.232;2024-03-23T04:12:41;75.18;;;41.17;;
40659;SDS011;26753;45.544;9.232;2024-03-23T04:15:08;81.60;;;43.65;;
40659;SDS011;26753;45.544;9.232;2024-03-23T04:17:33;75.25;;;41.40;;
40659;SDS011;26753;45.544;9.232;2024-03-23T04:19:59;81.05;;;44.33;;
40659;SDS011;26753;45.544;9.232;2024-03-23T04:22:26;71.88;;;39.88;;
40659;SDS011;26753;45.544;9.232;2024-03-23T04:24:53;78.65;;;43.67;;
40659;SDS011;26753;45.544;9.232;2024-03-23T04:27:19;76.63;;;41.15;;
40659;SDS011;26753;45.544;9.232;2024-03-23T04:29:48;78.35;;;41.63;;
40659;SDS011;26753;45.544;9.232;2024-03-23T04:32:14;84.00;;;43.30;;
40659;SDS011;26753;45.544;9.232;2024-03-23T04:34:41;79.22;;;43.85;;
40659;SDS011;26753;45.544;9.232;2024-03-23T04:37:07;78.43;;;42.20;;
40659;SDS011;26753;45.544;9.232;2024-03-23T04:39:33;77.80;;;42.60;;
40659;SDS011;26753;45.544;9.232;2024-03-23T04:41:58;77.70;;;42.03;;
40659;SDS011;26753;45.544;9.232;2024-03-23T04:44:24;79.63;;;42.83;;
40659;SDS011;26753;45.544;9.232;2024-03-23T04:46:50;73.88;;;41.47;;
40659;SDS011;26753;45.544;9.232;2024-03-23T04:49:15;79.15;;;42.15;;
40659;SDS011;26753;45.544;9.232;2024-03-23T04:51:41;79.85;;;41.95;;
40659;SDS011;26753;45.544;9.232;2024-03-23T04:54:10;74.93;;;39.78;;
40659;SDS011;26753;45.544;9.232;2024-03-23T04:56:39;72.75;;;41.38;;
40659;SDS011;26753;45.544;9.232;2024-03-23T04:59:05;74.45;;;39.97;;
40659;SDS011;26753;45.544;9.232;2024-03-23T05:01:31;76.45;;;41.97;;
40659;SDS011;26753;45.544;9.232;2024-03-23T05:03:57;73.63;;;40.70;;
40659;SDS011;26753;45.544;9.232;2024-03-23T05:06:23;76.40;;;41.90;;
40659;SDS011;26753;45.544;9.232;2024-03-23T05:08:49;77.78;;;42.10;;
40659;SDS011;26753;45.544;9.232;2024-03-23T05:11:15;79.63;;;42.38;;
40659;SDS011;26753;45.544;9.232;2024-03-23T05:13:41;76.22;;;42.55;;
40659;SDS011;26753;45.544;9.232;2024-03-23T05:16:07;78.63;;;40.58;;
40659;SDS011;26753;45.544;9.232;2024-03-23T05:18:33;73.57;;;42.03;;
40659;SDS011;26753;45.544;9.232;2024-03-23T05:21:00;75.45;;;41.83;;
40659;SDS011;26753;45.544;9.232;2024-03-23T05:23:26;72.88;;;41.28;;
40659;SDS011;26753;45.544;9.232;2024-03-23T05:25:53;75.40;;;41.45;;
40659;SDS011;26753;45.544;9.232;2024-03-23T05:28:18;73.90;;;41.10;;
40659;SDS011;26753;45.544;9.232;2024-03-23T05:30:49;75.35;;;40.88;;
40659;SDS011;26753;45.544;9.232;2024-03-23T05:33:19;80.07;;;42.15;;
40659;SDS011;26753;45.544;9.232;2024-03-23T05:35:46;75.90;;;41.92;;
40659;SDS011;26753;45.544;9.232;2024-03-23T05:38:12;77.10;;;41.90;;
40659;SDS011;26753;45.544;9.232;2024-03-23T05:40:39;79.53;;;42.03;;
40659;SDS011;26753;45.544;9.232;2024-03-23T05:43:08;75.53;;;41.35;;
40659;SDS011;26753;45.544;9.232;2024-03-23T05:45:34;78.25;;;42.75;;
40659;SDS011;26753;45.544;9.232;2024-03-23T05:48:00;77.10;;;41.13;;
40659;SDS011;26753;45.544;9.232;2024-03-23T05:50:26;81.05;;;42.67;;
40659;SDS011;26753;45.544;9.232;2024-03-23T05:52:51;75.95;;;40.40;;
40659;SDS011;26753;45.544;9.232;2024-03-23T05:55:17;78.30;;;40.42;;
40659;SDS011;26753;45.544;9.232;2024-03-23T05:57:43;74.57;;;41.50;;
40659;SDS011;26753;45.544;9.232;2024-03-23T06:00:09;75.25;;;40.58;;
40659;SDS011;26753;45.544;9.232;2024-03-23T06:02:41;73.30;;;41.13;;
40659;SDS011;26753;45.544;9.232;2024-03-23T06:05:09;74.68;;;41.92;;
40659;SDS011;26753;45.544;9.232;2024-03-23T06:07:37;75.13;;;41.60;;
40659;SDS011;26753;45.544;9.232;2024-03-23T06:10:04;72.63;;;41.03;;
40659;SDS011;26753;45.544;9.232;2024-03-23T06:12:30;76.97;;;42.38;;
40659;SDS011;26753;45.544;9.232;2024-03-23T06:14:56;77.43;;;41.85;;
40659;SDS011;26753;45.544;9.232;2024-03-23T06:17:22;79.38;;;43.45;;
40659;SDS011;26753;45.544;9.232;2024-03-23T06:19:48;79.22;;;44.15;;
40659;SDS011;26753;45.544;9.232;2024-03-23T06:22:14;78.78;;;43.45;;
40659;SDS011;26753;45.544;9.232;2024-03-23T06:24:40;85.80;;;44.13;;
40659;SDS011;26753;45.544;9.232;2024-03-23T06:27:05;82.90;;;45.03;;
40659;SDS011;26753;45.544;9.232;2024-03-23T06:29:31;75.95;;;43.10;;
40659;SDS011;26753;45.544;9.232;2024-03-23T06:31:57;84.25;;;44.22;;
40659;SDS011;26753;45.544;9.232;2024-03-23T06:34:23;83.03;;;44.53;;
40659;SDS011;26753;45.544;9.232;2024-03-23T06:36:49;80.43;;;43.70;;
40659;SDS011;26753;45.544;9.232;2024-03-23T06:39:15;82.72;;;44.42;;
40659;SDS011;26753;45.544;9.232;2024-03-23T06:41:42;81.90;;;45.42;;
40659;SDS011;26753;45.544;9.232;2024-03-23T06:44:08;79.45;;;44.60;;
40659;SDS011;26753;45.544;9.232;2024-03-23T06:46:34;77.35;;;44.50;;
40659;SDS011;26753;45.544;9.232;2024-03-23T06:48:59;73.70;;;43.15;;
40659;SDS011;26753;45.544;9.232;2024-03-23T06:51:25;78.28;;;42.75;;
40659;SDS011;26753;45.544;9.232;2024-03-23T06:53:50;76.13;;;42.95;;
40659;SDS011;26753;45.544;9.232;2024-03-23T06:56:16;72.25;;;41.60;;
40659;SDS011;26753;45.544;9.232;2024-03-23T06:58:42;73.47;;;42.28;;
40659;SDS011;26753;45.544;9.232;2024-03-23T07:01:08;72.18;;;42.15;;
40659;SDS011;26753;45.544;9.232;2024-03-23T07:03:33;77.20;;;42.33;;
40659;SDS011;26753;45.544;9.232;2024-03-23T07:05:59;71.03;;;39.90;;
40659;SDS011;26753;45.544;9.232;2024-03-23T07:08:25;65.90;;;38.88;;
40659;SDS011;26753;45.544;9.232;2024-03-23T07:10:50;68.65;;;39.40;;
40659;SDS011;26753;45.544;9.232;2024-03-23T07:13:16;66.45;;;39.42;;
40659;SDS011;26753;45.544;9.232;2024-03-23T07:15:42;65.45;;;39.05;;
40659;SDS011;26753;45.544;9.232;2024-03-23T07:18:07;74.20;;;40.00;;
40659;SDS011;26753;45.544;9.232;2024-03-23T07:20:33;69.93;;;40.05;;
40659;SDS011;26753;45.544;9.232;2024-03-23T07:22:59;73.00;;;40.75;;
40659;SDS011;26753;45.544;9.232;2024-03-23T07:25:25;63.28;;;37.97;;
40659;SDS011;26753;45.544;9.232;2024-03-23T07:27:53;64.57;;;38.33;;
40659;SDS011;26753;45.544;9.232;2024-03-23T07:30:18;63.10;;;36.45;;
40659;SDS011;26753;45.544;9.232;2024-03-23T07:32:44;59.75;;;35.58;;
40659;SDS011;26753;45.544;9.232;2024-03-23T07:35:10;61.65;;;35.67;;
40659;SDS011;26753;45.544;9.232;2024-03-23T07:37:36;60.95;;;34.45;;
40659;SDS011;26753;45.544;9.232;2024-03-23T07:40:01;56.28;;;32.85;;
40659;SDS011;26753;45.544;9.232;2024-03-23T07:42:27;55.80;;;32.10;;
40659;SDS011;26753;45.544;9.232;2024-03-23T07:44:54;56.83;;;32.05;;
40659;SDS011;26753;45.544;9.232;2024-03-23T07:47:21;54.95;;;31.55;;
40659;SDS011;26753;45.544;9.232;2024-03-23T07:49:47;51.40;;;28.90;;
40659;SDS011;26753;45.544;9.232;2024-03-23T07:52:13;44.92;;;27.58;;
40659;SDS011;26753;45.544;9.232;2024-03-23T07:54:39;44.55;;;27.45;;
40659;SDS011;26753;45.544;9.232;2024-03-23T07:57:04;48.88;;;28.95;;
40659;SDS011;26753;45.544;9.232;2024-03-23T07:59:31;47.33;;;26.48;;
40659;SDS011;26753;45.544;9.232;2024-03-23T08:01:58;48.88;;;27.45;;
40659;SDS011;26753;45.544;9.232;2024-03-23T08:04:25;45.38;;;27.42;;
40659;SDS011;26753;45.544;9.232;2024-03-23T08:06:52;48.33;;;27.13;;
40659;SDS011;26753;45.544;9.232;2024-03-23T08:09:18;42.08;;;24.75;;
40659;SDS011;26753;45.544;9.232;2024-03-23T08:11:43;35.47;;;23.67;;
40659;SDS011;26753;45.544;9.232;2024-03-23T08:14:11;40.33;;;24.30;;
40659;SDS011;26753;45.544;9.232;2024-03-23T08:16:37;36.05;;;22.63;;
40659;SDS011;26753;45.544;9.232;2024-03-23T08:19:02;37.17;;;22.10;;
40659;SDS011;26753;45.544;9.232;2024-03-23T08:21:28;34.92;;;21.80;;
40659;SDS011;26753;45.544;9.232;2024-03-23T08:23:54;35.97;;;22.25;;
40659;SDS011;26753;45.544;9.232;2024-03-23T08:26:20;32.20;;;19.40;;
40659;SDS011;26753;45.544;9.232;2024-03-23T08:28:45;30.48;;;20.25;;
40659;SDS011;26753;45.544;9.232;2024-03-23T08:31:11;33.38;;;20.48;;
40659;SDS011;26753;45.544;9.232;2024-03-23T08:33:38;33.45;;;20.55;;
40659;SDS011;26753;45.544;9.232;2024-03-23T08:36:05;33.88;;;20.63;;
40659;SDS011;26753;45.544;9.232;2024-03-23T08:38:32;32.40;;;20.30;;
40659;SDS011;26753;45.544;9.232;2024-03-23T08:43:28;31.13;;;18.58;;
40659;SDS011;26753;45.544;9.232;2024-03-23T08:46:05;33.05;;;18.80;;
40659;SDS011;26753;45.544;9.232;2024-03-23T08:48:32;31.35;;;19.27;;
40659;SDS011;26753;45.544;9.232;2024-03-23T08:51:02;28.33;;;19.42;;
40659;SDS011;26753;45.544;9.232;2024-03-23T08:53:28;29.55;;;18.83;;
40659;SDS011;26753;45.544;9.232;2024-03-23T08:55:55;27.67;;;19.02;;
40659;SDS011;26753;45.544;9.232;2024-03-23T08:58:22;26.35;;;17.05;;
40659;SDS011;26753;45.544;9.232;2024-03-23T09:00:49;26.75;;;17.77;;
40659;SDS011;26753;45.544;9.232;2024-03-23T09:03:15;27.13;;;16.77;;
40659;SDS011;26753;45.544;9.232;2024-03-23T09:05:41;26.33;;;17.30;;
40659;SDS011;26753;45.544;9.232;2024-03-23T09:08:07;29.88;;;17.52;;
40659;SDS011;26753;45.544;9.232;2024-03-23T09:10:39;27.67;;;17.85;;
40659;SDS011;26753;45.544;9.232;2024-03-23T09:13:05;28.95;;;18.23;;
40659;SDS011;26753;45.544;9.232;2024-03-23T09:15:35;24.52;;;16.73;;
40659;SDS011;26753;45.544;9.232;2024-03-23T09:18:02;28.10;;;17.42;;
40659;SDS011;26753;45.544;9.232;2024-03-23T09:20:28;27.60;;;16.83;;
40659;SDS011;26753;45.544;9.232;2024-03-23T09:22:54;25.02;;;17.05;;
40659;SDS011;26753;45.544;9.232;2024-03-23T09:25:19;24.30;;;16.70;;
40659;SDS011;26753;45.544;9.232;2024-03-23T09:27:48;24.40;;;16.48;;
40659;SDS011;26753;45.544;9.232;2024-03-23T09:30:14;25.83;;;16.35;;
40659;SDS011;26753;45.544;9.232;2024-03-23T09:32:43;25.02;;;16.10;;
40659;SDS011;26753;45.544;9.232;2024-03-23T09:35:09;23.75;;;14.77;;
40659;SDS011;26753;45.544;9.232;2024-03-23T09:37:35;19.60;;;15.05;;
40659;SDS011;26753;45.544;9.232;2024-03-23T09:40:01;23.83;;;14.75;;
40659;SDS011;26753;45.544;9.232;2024-03-23T09:42:28;21.77;;;15.82;;
40659;SDS011;26753;45.544;9.232;2024-03-23T09:44:54;26.65;;;16.13;;
40659;SDS011;26753;45.544;9.232;2024-03-23T09:47:22;23.58;;;16.23;;
40659;SDS011;26753;45.544;9.232;2024-03-23T09:49:50;23.55;;;16.02;;
40659;SDS011;26753;45.544;9.232;2024-03-23T09:52:16;23.85;;;15.70;;
40659;SDS011;26753;45.544;9.232;2024-03-23T09:54:42;22.45;;;15.40;;
40659;SDS011;26753;45.544;9.232;2024-03-23T09:57:07;23.27;;;15.90;;
40659;SDS011;26753;45.544;9.232;2024-03-23T09:59:33;22.35;;;14.85;;
40659;SDS011;26753;45.544;9.232;2024-03-23T10:01:59;26.20;;;14.88;;
40659;SDS011;26753;45.544;9.232;2024-03-23T10:04:35;22.30;;;15.07;;
40659;SDS011;26753;45.544;9.232;2024-03-23T10:07:12;21.23;;;14.52;;
40659;SDS011;26753;45.544;9.232;2024-03-23T10:09:38;23.70;;;15.35;;
40659;SDS011;26753;45.544;9.232;2024-03-23T10:12:10;22.23;;;14.80;;
40659;SDS011;26753;45.544;9.232;2024-03-23T10:14:40;20.70;;;14.25;;
40659;SDS011;26753;45.544;9.232;2024-03-23T10:17:12;19.92;;;14.07;;
40659;SDS011;26753;45.544;9.232;2024-03-23T10:19:49;21.55;;;14.38;;
40659;SDS011;26753;45.544;9.232;2024-03-23T10:22:20;21.75;;;15.30;;
40659;SDS011;26753;45.544;9.232;2024-03-23T10:24:47;22.10;;;14.77;;
40659;SDS011;26753;45.544;9.232;2024-03-23T10:27:17;22.35;;;14.90;;
40659;SDS011;26753;45.544;9.232;2024-03-23T10:29:47;25.90;;;15.18;;
40659;SDS011;26753;45.544;9.232;2024-03-23T10:32:13;25.25;;;14.77;;
40659;SDS011;26753;45.544;9.232;2024-03-23T10:34:40;23.65;;;15.13;;
40659;SDS011;26753;45.544;9.232;2024-03-23T10:37:06;23.05;;;14.95;;
40659;SDS011;26753;45.544;9.232;2024-03-23T10:39:42;23.85;;;15.73;;
40659;SDS011;26753;45.544;9.232;2024-03-23T10:42:08;21.48;;;15.13;;
40659;SDS011;26753;45.544;9.232;2024-03-23T10:44:38;23.65;;;15.02;;
40659;SDS011;26753;45.544;9.232;2024-03-23T10:47:04;23.25;;;14.32;;
40659;SDS011;26753;45.544;9.232;2024-03-23T10:49:31;21.75;;;14.10;;
40659;SDS011;26753;45.544;9.232;2024-03-23T10:52:02;18.80;;;13.32;;
40659;SDS011;26753;45.544;9.232;2024-03-23T10:54:32;25.73;;;14.77;;
40659;SDS011;26753;45.544;9.232;2024-03-23T10:57:13;20.83;;;14.85;;
40659;SDS011;26753;45.544;9.232;2024-03-23T10:59:41;25.02;;;15.05;;
40659;SDS011;26753;45.544;9.232;2024-03-23T11:02:17;21.42;;;14.38;;
40659;SDS011;26753;45.544;9.232;2024-03-23T11:04:44;22.35;;;14.00;;
40659;SDS011;26753;45.544;9.232;2024-03-23T11:07:31;22.50;;;14.32;;
40659;SDS011;26753;45.544;9.232;2024-03-23T11:09:57;24.65;;;15.95;;
40659;SDS011;26753;45.544;9.232;2024-03-23T11:14:53;27.23;;;15.70;;
40659;SDS011;26753;45.544;9.232;2024-03-23T11:17:37;25.42;;;16.65;;
40659;SDS011;26753;45.544;9.232;2024-03-23T11:20:04;27.90;;;15.73;;
40659;SDS011;26753;45.544;9.232;2024-03-23T11:27:43;28.33;;;18.10;;
40659;SDS011;26753;45.544;9.232;2024-03-23T11:30:44;28.40;;;17.10;;
40659;SDS011;26753;45.544;9.232;2024-03-23T11:33:05;32.25;;;20.20;;
40659;SDS011;26753;45.544;9.232;2024-03-23T11:35:32;29.80;;;18.65;;
40659;SDS011;26753;45.544;9.232;2024-03-23T11:40:28;27.33;;;17.05;;
40659;SDS011;26753;45.544;9.232;2024-03-23T11:43:01;28.77;;;18.15;;
40659;SDS011;26753;45.544;9.232;2024-03-23T11:45:28;28.05;;;17.75;;
40659;SDS011;26753;45.544;9.232;2024-03-23T11:48:07;30.00;;;18.80;;
40659;SDS011;26753;45.544;9.232;2024-03-23T11:50:38;31.02;;;18.80;;
40659;SDS011;26753;45.544;9.232;2024-03-23T11:58:19;29.67;;;19.05;;
40659;SDS011;26753;45.544;9.232;2024-03-23T12:00:49;33.05;;;19.42;;
40659;SDS011;26753;45.544;9.232;2024-03-23T12:03:27;33.13;;;20.73;;
40659;SDS011;26753;45.544;9.232;2024-03-23T12:05:54;31.75;;;20.08;;
40659;SDS011;26753;45.544;9.232;2024-03-23T12:08:30;32.30;;;20.33;;
40659;SDS011;26753;45.544;9.232;2024-03-23T12:13:34;38.15;;;22.55;;
40659;SDS011;26753;45.544;9.232;2024-03-23T12:16:10;37.47;;;22.15;;
40659;SDS011;26753;45.544;9.232;2024-03-23T12:18:42;33.05;;;21.70;;
40659;SDS011;26753;45.544;9.232;2024-03-23T12:21:12;37.03;;;22.92;;
40659;SDS011;26753;45.544;9.232;2024-03-23T12:23:39;37.63;;;23.40;;
40659;SDS011;26753;45.544;9.232;2024-03-23T12:26:05;39.22;;;23.88;;
40659;SDS011;26753;45.544;9.232;2024-03-23T12:28:31;35.28;;;22.33;;
40659;SDS011;26753;45.544;9.232;2024-03-23T12:30:57;35.28;;;20.75;;
40659;SDS011;26753;45.544;9.232;2024-03-23T12:33:23;32.67;;;20.27;;
40659;SDS011;26753;45.544;9.232;2024-03-23T12:35:52;32.53;;;21.52;;
40659;SDS011;26753;45.544;9.232;2024-03-23T12:38:18;34.10;;;21.23;;
40659;SDS011;26753;45.544;9.232;2024-03-23T12:40:47;34.88;;;21.70;;
40659;SDS011;26753;45.544;9.232;2024-03-23T12:43:16;37.65;;;22.30;;
40659;SDS011;26753;45.544;9.232;2024-03-23T12:45:46;31.70;;;20.48;;
40659;SDS011;26753;45.544;9.232;2024-03-23T12:48:12;32.95;;;21.00;;
40659;SDS011;26753;45.544;9.232;2024-03-23T12:50:38;33.88;;;22.23;;
40659;SDS011;26753;45.544;9.232;2024-03-23T12:53:03;36.78;;;22.80;;
40659;SDS011;26753;45.544;9.232;2024-03-23T12:55:29;38.88;;;23.38;;
40659;SDS011;26753;45.544;9.232;2024-03-23T12:57:55;39.58;;;24.42;;
40659;SDS011;26753;45.544;9.232;2024-03-23T13:00:21;42.67;;;25.40;;
40659;SDS011;26753;45.544;9.232;2024-03-23T13:02:47;42.47;;;25.73;;
40659;SDS011;26753;45.544;9.232;2024-03-23T13:05:13;43.50;;;25.38;;
40659;SDS011;26753;45.544;9.232;2024-03-23T13:07:38;41.65;;;26.33;;
40659;SDS011;26753;45.544;9.232;2024-03-23T13:10:05;44.92;;;27.25;;
40659;SDS011;26753;45.544;9.232;2024-03-23T13:12:31;46.83;;;26.38;;
40659;SDS011;26753;45.544;9.232;2024-03-23T13:14:58;48.40;;;26.17;;
40659;SDS011;26753;45.544;9.232;2024-03-23T13:17:24;43.17;;;26.35;;
40659;SDS011;26753;45.544;9.232;2024-03-23T13:19:52;37.25;;;24.08;;
40659;SDS011;26753;45.544;9.232;2024-03-23T13:22:23;34.88;;;23.05;;
40659;SDS011;26753;45.544;9.232;2024-03-23T13:24:49;34.22;;;23.00;;
40659;SDS011;26753;45.544;9.232;2024-03-23T13:27:15;34.75;;;22.65;;
40659;SDS011;26753;45.544;9.232;2024-03-23T13:29:41;29.58;;;20.63;;
40659;SDS011;26753;45.544;9.232;2024-03-23T13:32:07;34.00;;;20.00;;
40659;SDS011;26753;45.544;9.232;2024-03-23T13:34:33;30.95;;;20.08;;
40659;SDS011;26753;45.544;9.232;2024-03-23T13:37:00;25.65;;;18.30;;
40659;SDS011;26753;45.544;9.232;2024-03-23T13:39:26;25.20;;;18.25;;
40659;SDS011;26753;45.544;9.232;2024-03-23T13:41:57;26.52;;;18.98;;
40659;SDS011;26753;45.544;9.232;2024-03-23T13:44:23;25.30;;;19.67;;
40659;SDS011;26753;45.544;9.232;2024-03-23T13:46:49;22.77;;;16.55;;
40659;SDS011;26753;45.544;9.232;2024-03-23T13:49:25;20.75;;;15.38;;
40659;SDS011;26753;45.544;9.232;2024-03-23T13:51:52;19.05;;;13.68;;
40659;SDS011;26753;45.544;9.232;2024-03-23T13:54:19;17.30;;;12.05;;
40659;SDS011;26753;45.544;9.232;2024-03-23T13:56:45;15.85;;;11.82;;
40659;SDS011;26753;45.544;9.232;2024-03-23T13:59:11;17.58;;;12.05;;
40659;SDS011;26753;45.544;9.232;2024-03-23T14:01:37;17.10;;;12.25;;
40659;SDS011;26753;45.544;9.232;2024-03-23T14:04:03;18.25;;;12.23;;
40659;SDS011;26753;45.544;9.232;2024-03-23T14:06:29;18.85;;;12.48;;
40659;SDS011;26753;45.544;9.232;2024-03-23T14:08:55;21.27;;;14.40;;
40659;SDS011;26753;45.544;9.232;2024-03-23T14:11:20;20.63;;;13.57;;
40659;SDS011;26753;45.544;9.232;2024-03-23T14:13:47;19.98;;;14.00;;
40659;SDS011;26753;45.544;9.232;2024-03-23T14:16:12;17.25;;;11.73;;
40659;SDS011;26753;45.544;9.232;2024-03-23T14:18:38;16.55;;;11.02;;
40659;SDS011;26753;45.544;9.232;2024-03-23T14:21:03;19.90;;;11.57;;
40659;SDS011;26753;45.544;9.232;2024-03-23T14:23:30;14.07;;;9.57;;
40659;SDS011;26753;45.544;9.232;2024-03-23T14:25:59;16.35;;;10.82;;
40659;SDS011;26753;45.544;9.232;2024-03-23T14:28:24;15.10;;;10.73;;
40659;SDS011;26753;45.544;9.232;2024-03-23T14:30:51;16.55;;;10.77;;
40659;SDS011;26753;45.544;9.232;2024-03-23T14:33:17;15.18;;;10.48;;
40659;SDS011;26753;45.544;9.232;2024-03-23T14:35:43;18.30;;;11.63;;
40659;SDS011;26753;45.544;9.232;2024-03-23T14:38:24;19.00;;;12.00;;
40659;SDS011;26753;45.544;9.232;2024-03-23T14:40:50;20.33;;;12.23;;
40659;SDS011;26753;45.544;9.232;2024-03-23T14:43:19;19.35;;;13.30;;
40659;SDS011;26753;45.544;9.232;2024-03-23T14:48:42;22.17;;;15.98;;
40659;SDS011;26753;45.544;9.232;2024-03-23T14:51:09;24.23;;;16.92;;
40659;SDS011;26753;45.544;9.232;2024-03-23T14:53:36;25.90;;;15.38;;
40659;SDS011;26753;45.544;9.232;2024-03-23T14:56:05;22.98;;;14.88;;
40659;SDS011;26753;45.544;9.232;2024-03-23T14:58:31;22.02;;;14.65;;
40659;SDS011;26753;45.544;9.232;2024-03-23T15:01:01;21.38;;;15.20;;
40659;SDS011;26753;45.544;9.232;2024-03-23T15:03:37;24.25;;;16.02;;
40659;SDS011;26753;45.544;9.232;2024-03-23T15:06:08;25.02;;;15.43;;
40659;SDS011;26753;45.544;9.232;2024-03-23T15:08:36;25.27;;;15.27;;
40659;SDS011;26753;45.544;9.232;2024-03-23T15:11:03;25.48;;;15.98;;
40659;SDS011;26753;45.544;9.232;2024-03-23T15:13:33;29.48;;;17.67;;
40659;SDS011;26753;45.544;9.232;2024-03-23T15:16:00;28.98;;;19.50;;
40659;SDS011;26753;45.544;9.232;2024-03-23T15:18:25;29.83;;;18.90;;
40659;SDS011;26753;45.544;9.232;2024-03-23T15:20:55;30.20;;;18.77;;
40659;SDS011;26753;45.544;9.232;2024-03-23T15:23:21;26.52;;;18.23;;
40659;SDS011;26753;45.544;9.232;2024-03-23T15:25:57;27.73;;;18.60;;
40659;SDS011;26753;45.544;9.232;2024-03-23T15:28:23;27.63;;;18.60;;
40659;SDS011;26753;45.544;9.232;2024-03-23T15:30:52;27.73;;;17.70;;
40659;SDS011;26753;45.544;9.232;2024-03-23T15:33:18;26.35;;;18.17;;
40659;SDS011;26753;45.544;9.232;2024-03-23T15:35:44;27.77;;;18.95;;